sensor_id;sensor_type;location;lat;lon;timestamp;P1;durP1;ratioP1;P2;durP2;ratioP2
7585;SDS011;12459;42.646;23.292;2023-06-26T00:09:51;38.40;;;36.60;;
7585;SDS011;12459;42.646;23.292;2023-06-26T00:24:53;36.83;;;35.13;;
7585;SDS011;12459;42.646;23.292;2023-06-26T00:39:55;38.13;;;36.37;;
7585;SDS011;12459;42.646;23.292;2023-06-26T00:54:57;40.30;;;38.43;;
7585;SDS011;12459;42.646;23.292;2023-06-26T01:09:59;37.23;;;35.53;;
7585;SDS011;12459;42.646;23.292;2023-06-26T01:25:03;36.50;;;34.80;;
7585;SDS011;12459;42.646;23.292;2023-06-26T01:40:11;41.03;;;39.13;;
7585;SDS011;12459;42.646;23.292;2023-06-26T01:55:32;37.23;;;35.53;;
7585;SDS011;12459;42.646;23.292;2023-06-26T02:10:43;36.40;;;34.70;;
7585;SDS011;12459;42.646;23.292;2023-06-26T02:40:47;36.13;;;34.47;;
7585;SDS011;12459;42.646;23.292;2023-06-26T02:55:48;39.17;;;37.37;;
7585;SDS011;12459;42.646;23.292;2023-06-26T03:10:50;33.67;;;32.07;;
7585;SDS011;12459;42.646;23.292;2023-06-26T03:25:52;35.63;;;33.97;;
7585;SDS011;12459;42.646;23.292;2023-06-26T03:40:54;36.90;;;35.20;;
7585;SDS011;12459;42.646;23.292;2023-06-26T03:55:56;32.83;;;31.33;;
7585;SDS011;12459;42.646;23.292;2023-06-26T04:10:58;32.17;;;30.67;;
7585;SDS011;12459;42.646;23.292;2023-06-26T04:26:00;32.23;;;30.73;;
7585;SDS011;12459;42.646;23.292;2023-06-26T04:41:03;35.67;;;34.03;;
7585;SDS011;12459;42.646;23.292;2023-06-26T04:56:05;32.57;;;31.07;;
7585;SDS011;12459;42.646;23.292;2023-06-26T05:11:07;35.27;;;33.67;;
7585;SDS011;12459;42.646;23.292;2023-06-26T05:26:09;37.73;;;36.03;;
7585;SDS011;12459;42.646;23.292;2023-06-26T05:41:11;35.50;;;33.87;;
7585;SDS011;12459;42.646;23.292;2023-06-26T05:56:13;38.37;;;36.57;;
7585;SDS011;12459;42.646;23.292;2023-06-26T06:11:15;36.33;;;34.63;;
7585;SDS011;12459;42.646;23.292;2023-06-26T06:26:17;38.03;;;36.27;;
7585;SDS011;12459;42.646;23.292;2023-06-26T06:41:19;37.43;;;35.73;;
7585;SDS011;12459;42.646;23.292;2023-06-26T06:56:21;38.07;;;36.33;;
7585;SDS011;12459;42.646;23.292;2023-06-26T07:11:23;34.13;;;32.53;;
7585;SDS011;12459;42.646;23.292;2023-06-26T07:26:25;36.97;;;35.27;;
7585;SDS011;12459;42.646;23.292;2023-06-26T07:41:44;43.63;;;41.63;;
7585;SDS011;12459;42.646;23.292;2023-06-26T07:56:56;42.30;;;40.40;;
7585;SDS011;12459;42.646;23.292;2023-06-26T08:11:59;45.40;;;43.30;;
7585;SDS011;12459;42.646;23.292;2023-06-26T08:27:01;46.37;;;44.27;;
7585;SDS011;12459;42.646;23.292;2023-06-26T08:42:03;45.10;;;43.03;;
7585;SDS011;12459;42.646;23.292;2023-06-26T08:57:05;42.10;;;40.20;;
7585;SDS011;12459;42.646;23.292;2023-06-26T09:12:08;44.53;;;42.50;;
7585;SDS011;12459;42.646;23.292;2023-06-26T09:27:10;43.33;;;41.33;;
7585;SDS011;12459;42.646;23.292;2023-06-26T09:42:15;48.40;;;46.20;;
7585;SDS011;12459;42.646;23.292;2023-06-26T09:57:18;51.13;;;48.83;;
7585;SDS011;12459;42.646;23.292;2023-06-26T10:12:26;47.27;;;45.13;;
7585;SDS011;12459;42.646;23.292;2023-06-26T10:27:33;48.93;;;46.73;;
7585;SDS011;12459;42.646;23.292;2023-06-26T10:42:40;51.53;;;49.20;;
7585;SDS011;12459;42.646;23.292;2023-06-26T10:57:44;46.37;;;44.27;;
7585;SDS011;12459;42.646;23.292;2023-06-26T11:12:47;48.33;;;46.13;;
7585;SDS011;12459;42.646;23.292;2023-06-26T11:27:52;53.10;;;50.70;;
7585;SDS011;12459;42.646;23.292;2023-06-26T11:42:54;49.97;;;47.67;;
7585;SDS011;12459;42.646;23.292;2023-06-26T11:57:56;48.87;;;46.67;;
7585;SDS011;12459;42.646;23.292;2023-06-26T14:28:45;57.90;;;55.30;;
7585;SDS011;12459;42.646;23.292;2023-06-26T14:43:47;60.93;;;58.20;;
7585;SDS011;12459;42.646;23.292;2023-06-26T14:58:50;54.03;;;51.63;;
7585;SDS011;12459;42.646;23.292;2023-06-26T15:13:54;52.40;;;50.00;;
7585;SDS011;12459;42.646;23.292;2023-06-26T15:28:57;52.93;;;50.53;;
7585;SDS011;12459;42.646;23.292;2023-06-26T15:43:59;53.00;;;50.60;;
7585;SDS011;12459;42.646;23.292;2023-06-26T15:59:00;45.77;;;43.67;;
7585;SDS011;12459;42.646;23.292;2023-06-26T16:14:02;49.07;;;46.87;;
7585;SDS011;12459;42.646;23.292;2023-06-26T16:29:04;48.87;;;46.63;;
7585;SDS011;12459;42.646;23.292;2023-06-26T16:44:06;45.17;;;43.10;;
7585;SDS011;12459;42.646;23.292;2023-06-26T16:59:07;46.63;;;44.53;;
7585;SDS011;12459;42.646;23.292;2023-06-26T17:14:09;43.80;;;41.80;;
7585;SDS011;12459;42.646;23.292;2023-06-26T17:29:11;44.70;;;42.67;;
7585;SDS011;12459;42.646;23.292;2023-06-26T17:44:13;42.57;;;40.63;;
7585;SDS011;12459;42.646;23.292;2023-06-26T17:59:15;44.80;;;42.80;;
7585;SDS011;12459;42.646;23.292;2023-06-26T18:14:16;42.77;;;40.80;;
7585;SDS011;12459;42.646;23.292;2023-06-26T18:29:18;36.43;;;34.73;;
7585;SDS011;12459;42.646;23.292;2023-06-26T18:44:20;45.53;;;43.43;;
7585;SDS011;12459;42.646;23.292;2023-06-26T18:59:22;43.23;;;41.23;;
7585;SDS011;12459;42.646;23.292;2023-06-26T19:14:25;37.50;;;35.80;;
7585;SDS011;12459;42.646;23.292;2023-06-26T19:29:27;42.03;;;40.13;;
7585;SDS011;12459;42.646;23.292;2023-06-26T19:44:29;45.47;;;43.37;;
7585;SDS011;12459;42.646;23.292;2023-06-26T19:59:30;40.50;;;38.63;;
7585;SDS011;12459;42.646;23.292;2023-06-26T20:14:32;43.27;;;41.30;;
7585;SDS011;12459;42.646;23.292;2023-06-26T20:29:34;42.43;;;40.50;;
7585;SDS011;12459;42.646;23.292;2023-06-26T20:44:36;40.97;;;39.07;;
7585;SDS011;12459;42.646;23.292;2023-06-26T20:59:38;41.37;;;39.47;;
7585;SDS011;12459;42.646;23.292;2023-06-26T21:14:40;38.37;;;36.57;;
7585;SDS011;12459;42.646;23.292;2023-06-26T21:29:42;37.93;;;36.20;;
7585;SDS011;12459;42.646;23.292;2023-06-26T21:44:44;38.67;;;36.87;;
7585;SDS011;12459;42.646;23.292;2023-06-26T21:59:46;40.37;;;38.53;;
7585;SDS011;12459;42.646;23.292;2023-06-26T22:14:47;41.10;;;39.20;;
7585;SDS011;12459;42.646;23.292;2023-06-26T22:29:49;38.83;;;37.03;;
7585;SDS011;12459;42.646;23.292;2023-06-26T22:44:51;35.30;;;33.70;;
7585;SDS011;12459;42.646;23.292;2023-06-26T22:59:53;41.77;;;39.87;;
7585;SDS011;12459;42.646;23.292;2023-06-26T23:14:55;35.17;;;33.57;;
7585;SDS011;12459;42.646;23.292;2023-06-26T23:29:56;37.80;;;36.07;;
7585;SDS011;12459;42.646;23.292;2023-06-26T23:44:58;34.07;;;32.47;;
